createdAt,value
2017-07-26T00:00:46.039Z,99.90
2017-07-26T00:03:13.502Z,99.90
2017-07-26T00:05:41.759Z,99.90
2017-07-26T00:08:09.192Z,99.90
2017-07-26T00:10:36.636Z,99.90
2017-07-26T00:13:04.095Z,99.90
2017-07-26T00:15:31.535Z,99.90
2017-07-26T00:17:59.003Z,99.90
2017-07-26T00:20:26.439Z,99.90
2017-07-26T00:22:54.671Z,99.90
2017-07-26T00:25:22.132Z,99.90
2017-07-26T00:27:49.582Z,99.90
2017-07-26T00:30:17.813Z,99.90
2017-07-26T00:32:45.255Z,99.90
2017-07-26T00:35:12.745Z,99.90
2017-07-26T00:37:40.200Z,99.90
2017-07-26T00:40:08.433Z,99.90
2017-07-26T00:42:35.888Z,99.90
2017-07-26T00:45:03.354Z,99.90
2017-07-26T00:47:30.825Z,99.90
2017-07-26T00:49:58.626Z,99.90
2017-07-26T00:52:26.044Z,99.90
2017-07-26T00:54:53.651Z,99.90
2017-07-26T00:57:21.877Z,99.90
2017-07-26T00:59:49.319Z,99.90
2017-07-26T01:02:16.781Z,99.90
2017-07-26T01:04:44.236Z,99.90
2017-07-26T01:07:11.728Z,99.90
2017-07-26T01:09:39.177Z,99.90
2017-07-26T01:12:06.665Z,99.90
2017-07-26T01:14:34.114Z,99.90
2017-07-26T01:17:01.550Z,99.90
2017-07-26T01:19:29.040Z,99.90
2017-07-26T01:21:56.477Z,99.90
2017-07-26T01:24:23.939Z,99.90
2017-07-26T01:26:51.369Z,99.30
2017-07-26T01:29:18.847Z,99.60
2017-07-26T01:31:46.292Z,99.60
2017-07-26T01:34:15.252Z,99.50
2017-07-26T01:36:42.828Z,99.50
2017-07-26T01:39:10.285Z,99.60
2017-07-26T01:41:37.763Z,99.40
2017-07-26T01:44:05.235Z,99.50
2017-07-26T01:46:32.684Z,99.70
2017-07-26T01:49:00.166Z,99.80
2017-07-26T01:51:27.636Z,99.90
2017-07-26T01:53:55.265Z,99.90
2017-07-26T01:56:22.717Z,99.90
2017-07-26T01:58:50.160Z,99.90
2017-07-26T02:01:17.633Z,99.90
2017-07-26T02:03:45.114Z,99.90
2017-07-26T02:06:12.579Z,99.30
2017-07-26T02:08:40.799Z,99.90
2017-07-26T02:11:08.235Z,99.90
2017-07-26T02:13:36.493Z,99.90
2017-07-26T02:16:03.943Z,99.90
2017-07-26T02:18:31.431Z,99.90
2017-07-26T02:20:58.877Z,99.90
2017-07-26T02:23:26.332Z,99.90
2017-07-26T02:25:53.876Z,99.90
2017-07-26T02:28:21.323Z,99.90
2017-07-26T02:30:48.812Z,99.90
2017-07-26T02:33:16.265Z,99.90
2017-07-26T02:35:43.745Z,99.90
2017-07-26T02:38:11.180Z,99.80
2017-07-26T02:40:39.418Z,99.90
2017-07-26T02:43:06.894Z,99.80
2017-07-26T02:45:34.359Z,99.00
2017-07-26T02:48:01.835Z,99.00
2017-07-26T02:50:29.316Z,99.50
2017-07-26T02:52:56.797Z,98.50
2017-07-26T02:55:24.275Z,98.50
2017-07-26T02:57:51.732Z,98.30
2017-07-26T03:00:19.193Z,98.50
2017-07-26T03:02:46.681Z,98.40
2017-07-26T03:05:14.128Z,98.70
2017-07-26T03:07:43.027Z,97.30
2017-07-26T03:10:11.281Z,97.50
2017-07-26T03:12:38.755Z,97.50
2017-07-26T03:15:06.201Z,97.90
2017-07-26T03:17:34.305Z,98.40
2017-07-26T03:20:01.785Z,98.00
2017-07-26T03:22:29.248Z,97.90
2017-07-26T03:24:56.783Z,97.70
2017-07-26T03:27:24.235Z,97.90
2017-07-26T03:29:51.712Z,97.30
2017-07-26T03:32:19.176Z,97.10
2017-07-26T03:34:46.652Z,97.60
2017-07-26T03:37:14.102Z,97.90
2017-07-26T03:39:41.578Z,98.30
2017-07-26T03:42:09.036Z,97.80
2017-07-26T03:44:36.497Z,97.70
2017-07-26T03:47:04.007Z,97.90
2017-07-26T03:49:31.474Z,98.50
2017-07-26T03:51:58.945Z,98.60
2017-07-26T03:54:26.403Z,98.40
2017-07-26T03:56:53.860Z,98.40
2017-07-26T03:59:22.089Z,98.60
2017-07-26T04:01:49.528Z,98.30
2017-07-26T04:04:17.778Z,98.30
2017-07-26T04:06:45.211Z,98.20
2017-07-26T04:09:12.699Z,98.20
2017-07-26T04:11:40.164Z,97.30
2017-07-26T04:14:07.608Z,97.60
2017-07-26T04:16:35.086Z,97.60
2017-07-26T04:19:03.324Z,97.80
2017-07-26T04:21:30.772Z,97.40
2017-07-26T04:23:58.245Z,97.60
2017-07-26T04:26:26.452Z,97.80
2017-07-26T04:28:53.918Z,97.80
2017-07-26T04:31:21.381Z,97.30
2017-07-26T04:33:49.612Z,96.70
2017-07-26T04:36:17.064Z,96.70
2017-07-26T04:38:44.516Z,96.90
2017-07-26T04:41:12.749Z,97.00
2017-07-26T04:43:40.236Z,97.00
2017-07-26T04:46:07.683Z,97.20
2017-07-26T04:48:35.213Z,97.10
2017-07-26T04:51:02.662Z,96.90
2017-07-26T04:53:30.160Z,96.70
2017-07-26T04:55:57.617Z,96.60
2017-07-26T04:58:25.101Z,96.60
2017-07-26T05:00:52.599Z,96.20
2017-07-26T05:03:20.836Z,96.60
2017-07-26T05:05:48.332Z,96.30
2017-07-26T05:08:15.793Z,96.10
2017-07-26T05:10:43.254Z,96.30
2017-07-26T05:13:10.784Z,96.00
2017-07-26T05:15:38.313Z,96.10
2017-07-26T05:18:05.845Z,96.20
2017-07-26T05:20:33.299Z,96.20
2017-07-26T05:23:00.761Z,96.30
2017-07-26T05:25:28.239Z,95.90
2017-07-26T05:27:55.688Z,96.20
2017-07-26T05:30:23.169Z,96.00
2017-07-26T05:32:50.642Z,95.90
2017-07-26T05:35:18.086Z,95.80
2017-07-26T05:40:34.656Z,96.20
2017-07-26T05:43:02.106Z,96.50
2017-07-26T05:45:30.348Z,96.00
2017-07-26T05:47:57.828Z,95.90
2017-07-26T05:50:25.299Z,95.80
2017-07-26T05:52:52.747Z,95.90
2017-07-26T05:55:20.319Z,95.90
2017-07-26T05:57:47.777Z,95.90
2017-07-26T06:00:16.020Z,96.20
2017-07-26T06:02:43.466Z,96.20
2017-07-26T06:05:10.937Z,96.00
2017-07-26T06:07:38.403Z,95.90
2017-07-26T06:10:06.690Z,95.50
2017-07-26T06:12:34.234Z,95.50
2017-07-26T06:15:01.873Z,95.80
2017-07-26T06:17:29.345Z,95.70
2017-07-26T06:19:56.784Z,95.90
2017-07-26T06:22:25.069Z,95.70
2017-07-26T06:24:52.521Z,95.70
2017-07-26T06:27:19.977Z,95.60
2017-07-26T06:29:47.459Z,95.30
2017-07-26T06:32:14.932Z,95.30
2017-07-26T06:34:42.414Z,95.50
2017-07-26T06:37:09.875Z,95.30
2017-07-26T06:39:37.347Z,95.50
2017-07-26T06:42:04.842Z,95.30
2017-07-26T06:44:32.284Z,95.50
2017-07-26T06:46:59.767Z,95.70
2017-07-26T06:49:27.248Z,95.50
2017-07-26T06:51:54.695Z,95.30
2017-07-26T06:54:22.140Z,95.30
2017-07-26T06:56:49.647Z,95.30
2017-07-26T06:59:17.103Z,95.10
2017-07-26T07:01:45.327Z,95.30
2017-07-26T07:04:12.801Z,95.30
2017-07-26T07:06:40.280Z,95.10
2017-07-26T07:09:07.749Z,95.00
2017-07-26T07:11:35.230Z,94.90
2017-07-26T07:14:02.696Z,94.80
2017-07-26T07:16:30.146Z,94.90
2017-07-26T07:18:58.220Z,94.80
2017-07-26T07:21:25.693Z,94.80
2017-07-26T07:23:53.220Z,94.80
2017-07-26T07:26:20.802Z,94.60
2017-07-26T07:28:48.238Z,94.70
2017-07-26T07:31:16.500Z,95.00
2017-07-26T07:33:43.960Z,94.90
2017-07-26T07:36:11.411Z,95.00
2017-07-26T07:38:38.872Z,94.90
2017-07-26T07:41:06.339Z,94.70
2017-07-26T07:43:33.802Z,94.80
2017-07-26T07:46:02.543Z,94.90
2017-07-26T07:48:30.020Z,94.60
2017-07-26T07:50:57.506Z,94.60
2017-07-26T07:53:24.996Z,94.30
2017-07-26T07:55:52.468Z,94.00
2017-07-26T07:58:19.946Z,93.80
2017-07-26T08:00:47.421Z,93.90
2017-07-26T08:03:14.884Z,93.70
2017-07-26T08:05:42.386Z,93.70
2017-07-26T08:08:09.895Z,94.20
2017-07-26T08:10:37.364Z,94.10
2017-07-26T08:13:05.588Z,94.10
2017-07-26T08:15:33.065Z,94.10
2017-07-26T08:18:00.539Z,93.70
2017-07-26T08:20:27.968Z,93.10
2017-07-26T08:22:55.420Z,93.60
2017-07-26T08:25:22.888Z,93.60
2017-07-26T08:27:50.353Z,93.30
2017-07-26T08:30:17.819Z,93.50
2017-07-26T08:32:45.300Z,92.80
2017-07-26T08:35:12.748Z,92.80
2017-07-26T08:37:40.229Z,93.00
2017-07-26T08:40:07.657Z,93.20
2017-07-26T08:42:35.145Z,92.30
2017-07-26T08:45:03.402Z,92.70
2017-07-26T08:47:30.905Z,92.50
2017-07-26T08:49:58.373Z,92.30
2017-07-26T08:52:26.223Z,91.90
2017-07-26T08:54:53.668Z,92.10
2017-07-26T08:57:21.175Z,91.90
2017-07-26T08:59:48.612Z,92.20
2017-07-26T09:02:16.875Z,92.20
2017-07-26T09:04:44.319Z,92.20
2017-07-26T09:07:11.865Z,91.70
2017-07-26T09:09:40.098Z,91.50
2017-07-26T09:12:07.578Z,91.60
2017-07-26T09:14:35.072Z,91.50
2017-07-26T09:17:02.529Z,91.20
2017-07-26T09:19:29.985Z,90.70
2017-07-26T09:21:57.460Z,90.40
2017-07-26T09:24:24.947Z,90.30
2017-07-26T09:26:52.382Z,90.10
2017-07-26T09:29:19.825Z,89.60
2017-07-26T09:31:47.285Z,90.10
2017-07-26T09:34:14.760Z,90.10
2017-07-26T09:36:42.226Z,90.60
2017-07-26T09:39:09.683Z,90.50
2017-07-26T09:41:37.141Z,90.80
2017-07-26T09:44:04.655Z,90.80
2017-07-26T09:46:32.133Z,90.50
2017-07-26T09:48:59.587Z,90.50
2017-07-26T09:51:27.120Z,90.60
2017-07-26T09:53:55.364Z,90.90
2017-07-26T09:56:22.820Z,90.50
2017-07-26T09:58:50.327Z,90.10
2017-07-26T10:01:17.772Z,89.90
2017-07-26T10:03:45.279Z,90.00
2017-07-26T10:06:12.976Z,89.30
2017-07-26T10:08:44.470Z,89.20
2017-07-26T10:11:12.368Z,88.50
2017-07-26T10:13:40.160Z,88.30
2017-07-26T10:16:08.132Z,88.30
2017-07-26T10:18:36.180Z,87.90
2017-07-26T10:21:04.460Z,86.50
2017-07-26T10:23:32.038Z,88.30
2017-07-26T10:25:59.559Z,87.70
2017-07-26T10:28:27.466Z,88.00
2017-07-26T10:30:55.250Z,87.40
2017-07-26T10:33:23.029Z,87.40
2017-07-26T10:35:50.811Z,87.40
2017-07-26T10:38:18.891Z,87.20
2017-07-26T10:40:46.400Z,86.30
2017-07-26T10:43:13.899Z,85.80
2017-07-26T10:45:41.635Z,85.50
2017-07-26T10:48:09.140Z,85.40
2017-07-26T10:50:37.604Z,84.40
2017-07-26T10:53:07.939Z,82.20
2017-07-26T10:55:35.423Z,79.80
2017-07-26T10:58:02.912Z,78.10
2017-07-26T11:00:30.679Z,76.30
2017-07-26T11:02:58.568Z,72.80
2017-07-26T11:05:26.243Z,68.50
2017-07-26T11:07:53.756Z,65.70
2017-07-26T11:10:21.611Z,64.60
2017-07-26T11:12:49.149Z,66.30
2017-07-26T11:15:16.910Z,66.10
2017-07-26T11:17:44.846Z,66.60
2017-07-26T11:20:13.236Z,68.40
2017-07-26T11:22:41.025Z,65.90
2017-07-26T11:25:09.261Z,66.60
2017-07-26T11:27:36.803Z,68.00
2017-07-26T11:30:04.280Z,68.60
2017-07-26T11:32:31.888Z,69.60
2017-07-26T11:34:59.808Z,68.50
2017-07-26T11:37:28.566Z,62.90
2017-07-26T11:39:56.046Z,62.70
2017-07-26T11:42:24.109Z,60.50
2017-07-26T11:44:51.860Z,62.00
2017-07-26T11:47:20.060Z,61.30
2017-07-26T11:49:47.734Z,62.30
2017-07-26T11:52:15.962Z,63.90
2017-07-26T11:54:43.449Z,63.90
2017-07-26T11:57:10.933Z,62.40
2017-07-26T11:59:38.436Z,62.60
2017-07-26T12:02:06.002Z,60.30
2017-07-26T12:04:34.330Z,60.90
2017-07-26T12:07:02.372Z,62.10
2017-07-26T12:09:30.115Z,61.00
2017-07-26T12:11:57.896Z,61.20
2017-07-26T12:14:26.145Z,62.50
2017-07-26T12:16:54.478Z,62.50
2017-07-26T12:19:22.345Z,63.30
2017-07-26T12:21:50.684Z,65.10
2017-07-26T12:24:18.155Z,65.10
2017-07-26T12:26:45.617Z,66.20
2017-07-26T12:29:13.375Z,66.60
2017-07-26T12:31:41.637Z,67.30
2017-07-26T12:34:09.147Z,67.30
2017-07-26T12:36:36.685Z,68.80
2017-07-26T12:39:04.247Z,66.80
2017-07-26T12:41:31.993Z,65.50
2017-07-26T12:43:59.504Z,64.60
2017-07-26T12:46:27.000Z,59.60
2017-07-26T12:48:54.464Z,58.10
2017-07-26T12:51:22.033Z,57.10
2017-07-26T12:53:50.060Z,58.10
2017-07-26T12:56:19.299Z,59.60
2017-07-26T12:58:47.132Z,59.60
2017-07-26T13:01:14.594Z,59.10
2017-07-26T13:03:42.839Z,60.40
2017-07-26T13:06:10.638Z,59.80
2017-07-26T13:08:38.134Z,60.00
2017-07-26T13:11:05.902Z,58.20
2017-07-26T13:13:33.384Z,58.50
2017-07-26T13:16:00.816Z,57.90
2017-07-26T13:18:28.288Z,58.10
2017-07-26T13:20:55.745Z,58.20
2017-07-26T13:23:23.847Z,59.40
2017-07-26T13:25:51.288Z,59.50
2017-07-26T13:28:19.132Z,59.40
2017-07-26T13:30:47.437Z,59.50
2017-07-26T13:33:15.206Z,59.50
2017-07-26T13:35:42.895Z,59.90
2017-07-26T13:38:11.208Z,60.60
2017-07-26T13:40:38.774Z,59.90
2017-07-26T13:43:06.554Z,59.60
2017-07-26T13:45:34.540Z,59.70
2017-07-26T13:48:02.348Z,58.80
2017-07-26T13:50:29.825Z,57.30
2017-07-26T13:52:57.983Z,56.80
2017-07-26T13:55:26.225Z,55.90
2017-07-26T13:57:54.381Z,55.80
2017-07-26T14:00:22.150Z,55.90
2017-07-26T14:02:49.583Z,53.60
2017-07-26T14:05:17.731Z,52.80
2017-07-26T14:07:49.684Z,52.30
2017-07-26T14:10:17.982Z,52.60
2017-07-26T14:12:46.580Z,54.50
2017-07-26T14:15:15.198Z,54.70
2017-07-26T14:17:42.653Z,54.60
2017-07-26T14:20:14.956Z,56.10
2017-07-26T14:22:42.473Z,56.10
2017-07-26T14:25:09.946Z,55.30
2017-07-26T14:27:37.468Z,55.70
2017-07-26T14:30:05.712Z,54.60
2017-07-26T14:32:33.305Z,54.60
2017-07-26T14:35:00.784Z,55.70
2017-07-26T14:37:33.032Z,56.20
2017-07-26T14:40:04.953Z,56.20
2017-07-26T14:42:32.399Z,56.70
2017-07-26T14:45:03.728Z,56.70
2017-07-26T14:47:31.593Z,56.00
2017-07-26T14:49:59.832Z,54.40
2017-07-26T14:52:27.309Z,54.40
2017-07-26T14:54:56.611Z,54.90
2017-07-26T14:57:24.927Z,54.90
2017-07-26T14:59:52.371Z,55.60
2017-07-26T15:02:20.776Z,56.10
2017-07-26T15:04:48.375Z,55.20
2017-07-26T15:07:15.823Z,55.50
2017-07-26T15:09:43.263Z,55.30
2017-07-26T15:12:10.758Z,53.30
2017-07-26T15:14:38.239Z,52.40
2017-07-26T15:17:05.731Z,52.60
2017-07-26T15:19:33.320Z,51.80
2017-07-26T15:22:00.852Z,53.00
2017-07-26T15:24:29.128Z,52.40
2017-07-26T15:26:57.944Z,52.30
2017-07-26T15:29:33.104Z,55.10
2017-07-26T15:32:00.665Z,55.10
2017-07-26T15:34:28.214Z,55.50
2017-07-26T15:36:55.691Z,55.50
2017-07-26T15:39:27.428Z,55.10
2017-07-26T15:41:55.307Z,55.20
2017-07-26T15:44:22.749Z,54.70
2017-07-26T15:46:50.235Z,55.00
2017-07-26T15:49:17.672Z,54.50
2017-07-26T15:51:45.144Z,55.30
2017-07-26T15:54:16.658Z,54.40
2017-07-26T15:56:44.551Z,54.30
2017-07-26T15:59:12.812Z,55.20
2017-07-26T16:01:44.522Z,55.20
2017-07-26T16:04:12.763Z,55.40
2017-07-26T16:06:40.840Z,55.90
2017-07-26T16:09:08.378Z,55.10
2017-07-26T16:11:35.854Z,54.80
2017-07-26T16:14:03.403Z,54.70
2017-07-26T16:16:30.852Z,55.50
2017-07-26T16:18:58.793Z,55.30
2017-07-26T16:21:30.280Z,54.60
2017-07-26T16:23:58.035Z,54.20
2017-07-26T16:26:25.914Z,53.00
2017-07-26T16:28:53.381Z,53.30
2017-07-26T16:31:20.879Z,53.90
2017-07-26T16:33:48.664Z,53.70
2017-07-26T16:36:16.155Z,54.10
2017-07-26T16:38:43.659Z,54.40
2017-07-26T16:41:11.463Z,54.40
2017-07-26T16:43:38.931Z,53.90
2017-07-26T16:46:06.752Z,53.80
2017-07-26T16:48:34.943Z,54.10
2017-07-26T16:51:06.892Z,54.10
2017-07-26T16:53:35.391Z,56.40
2017-07-26T16:56:02.855Z,56.40
2017-07-26T16:58:30.722Z,57.10
2017-07-26T17:00:58.245Z,57.30
2017-07-26T17:03:25.893Z,58.00
2017-07-26T17:05:53.623Z,58.50
2017-07-26T17:08:21.980Z,58.50
2017-07-26T17:10:50.917Z,58.70
2017-07-26T17:13:18.437Z,58.80
2017-07-26T17:15:45.970Z,59.30
2017-07-26T17:18:13.754Z,59.70
2017-07-26T17:20:41.216Z,60.00
2017-07-26T17:23:08.739Z,60.40
2017-07-26T17:25:36.242Z,59.60
2017-07-26T17:28:03.704Z,59.00
2017-07-26T17:30:31.880Z,59.80
2017-07-26T17:32:59.407Z,59.10
2017-07-26T17:35:31.180Z,59.60
2017-07-26T17:37:59.060Z,59.80
2017-07-26T17:40:26.587Z,60.00
2017-07-26T17:42:54.971Z,60.10
2017-07-26T17:45:22.408Z,60.20
2017-07-26T17:47:50.686Z,61.00
2017-07-26T17:50:18.144Z,60.80
2017-07-26T17:52:46.485Z,61.50
2017-07-26T17:55:14.282Z,62.20
2017-07-26T17:57:41.868Z,62.00
2017-07-26T18:00:10.295Z,62.70
2017-07-26T18:02:38.646Z,62.70
2017-07-26T18:05:06.587Z,64.20
2017-07-26T18:07:34.024Z,63.30
2017-07-26T18:10:01.483Z,63.30
2017-07-26T18:12:28.971Z,63.80
2017-07-26T18:14:56.431Z,64.50
2017-07-26T18:20:05.550Z,64.80
2017-07-26T18:22:33.028Z,64.80
2017-07-26T18:25:00.773Z,64.90
2017-07-26T18:27:33.393Z,65.70
2017-07-26T18:30:00.932Z,66.60
2017-07-26T18:32:28.695Z,67.60
2017-07-26T18:34:57.154Z,66.30
2017-07-26T18:37:24.620Z,66.20
2017-07-26T18:39:52.212Z,66.70
2017-07-26T18:42:23.404Z,67.10
2017-07-26T18:44:50.867Z,67.10
2017-07-26T18:47:18.411Z,67.10
2017-07-26T18:49:46.572Z,66.90
2017-07-26T18:52:14.004Z,67.00
2017-07-26T18:54:41.718Z,66.80
2017-07-26T18:57:09.399Z,66.50
2017-07-26T18:59:40.880Z,66.90
2017-07-26T19:02:12.311Z,67.40
2017-07-26T19:04:40.545Z,67.30
2017-07-26T19:07:08.049Z,67.20
2017-07-26T19:09:35.891Z,67.70
2017-07-26T19:12:03.316Z,68.40
2017-07-26T19:14:31.035Z,68.60
2017-07-26T19:16:58.528Z,68.50
2017-07-26T19:19:26.640Z,69.20
2017-07-26T19:21:54.592Z,69.60
2017-07-26T19:24:23.092Z,69.90
2017-07-26T19:26:50.811Z,70.80
2017-07-26T19:29:18.293Z,72.00
2017-07-26T19:31:45.804Z,72.10
2017-07-26T19:34:14.920Z,73.50
2017-07-26T19:36:42.391Z,73.50
2017-07-26T19:39:18.970Z,74.20
2017-07-26T19:41:47.687Z,74.40
2017-07-26T19:44:15.481Z,73.90
2017-07-26T19:46:43.394Z,74.50
2017-07-26T19:49:11.246Z,75.70
2017-07-26T19:51:39.415Z,75.70
2017-07-26T19:54:08.042Z,76.30
2017-07-26T19:56:35.825Z,76.30
2017-07-26T19:59:07.280Z,76.10
2017-07-26T20:01:34.784Z,76.00
2017-07-26T20:04:03.565Z,75.80
2017-07-26T20:06:31.081Z,75.80
2017-07-26T20:08:58.911Z,76.60
2017-07-26T20:11:27.473Z,77.70
2017-07-26T20:13:55.172Z,77.60
2017-07-26T20:16:23.709Z,79.50
2017-07-26T20:18:52.116Z,79.40
2017-07-26T20:21:20.604Z,79.70
2017-07-26T20:23:48.563Z,80.00
2017-07-26T20:26:16.798Z,81.50
2017-07-26T20:28:44.265Z,81.50
2017-07-26T20:31:12.336Z,81.80
2017-07-26T20:33:39.836Z,82.30
2017-07-26T20:36:07.573Z,82.30
2017-07-26T20:38:35.079Z,83.20
2017-07-26T20:41:02.852Z,82.60
2017-07-26T20:43:30.362Z,83.70
2017-07-26T20:45:58.230Z,84.30
2017-07-26T20:48:26.005Z,85.20
2017-07-26T20:50:53.865Z,85.40
2017-07-26T20:53:22.156Z,86.00
2017-07-26T20:55:50.763Z,85.60
2017-07-26T20:58:19.011Z,85.80
2017-07-26T21:00:47.373Z,85.80
2017-07-26T21:03:15.140Z,85.00
2017-07-26T21:05:42.924Z,86.60
2017-07-26T21:08:10.689Z,86.30
2017-07-26T21:10:39.326Z,86.90
2017-07-26T21:13:07.108Z,86.90
2017-07-26T21:15:34.640Z,87.10
2017-07-26T21:18:03.170Z,87.90
2017-07-26T21:20:30.652Z,87.60
2017-07-26T21:22:58.122Z,87.90
2017-07-26T21:25:25.657Z,88.50
2017-07-26T21:27:53.411Z,88.50
2017-07-26T21:30:21.751Z,89.10
2017-07-26T21:32:49.452Z,88.50
2017-07-26T21:35:16.924Z,87.90
2017-07-26T21:37:44.492Z,88.20
2017-07-26T21:40:12.716Z,88.30
2017-07-26T21:42:40.211Z,88.10
2017-07-26T21:45:08.548Z,88.40
2017-07-26T21:47:37.156Z,88.20
2017-07-26T21:50:04.608Z,88.70
2017-07-26T21:52:33.063Z,89.20
2017-07-26T21:55:01.753Z,89.30
2017-07-26T21:57:29.223Z,89.50
2017-07-26T21:59:58.042Z,87.80
2017-07-26T22:02:26.488Z,87.80
2017-07-26T22:05:02.902Z,86.20
2017-07-26T22:07:30.809Z,86.10
2017-07-26T22:09:58.287Z,85.90
2017-07-26T22:12:26.021Z,86.30
2017-07-26T22:14:53.526Z,86.60
2017-07-26T22:17:21.028Z,86.50
2017-07-26T22:19:48.597Z,87.30
2017-07-26T22:22:16.100Z,87.30
2017-07-26T22:24:43.644Z,86.40
2017-07-26T22:27:15.192Z,85.80
2017-07-26T22:29:43.178Z,85.40
2017-07-26T22:32:10.627Z,85.90
2017-07-26T22:34:43.599Z,86.40
2017-07-26T22:37:11.073Z,86.40
2017-07-26T22:39:38.503Z,86.30
2017-07-26T22:42:05.988Z,86.40
2017-07-26T22:44:33.523Z,86.70
2017-07-26T22:47:02.535Z,87.30
2017-07-26T22:49:31.277Z,87.30
2017-07-26T22:51:58.748Z,87.30
2017-07-26T22:54:29.891Z,87.30
2017-07-26T22:56:57.390Z,87.10
2017-07-26T22:59:25.160Z,87.70
2017-07-26T23:01:52.991Z,87.60
2017-07-26T23:04:20.847Z,87.70
2017-07-26T23:06:48.306Z,87.60
2017-07-26T23:09:16.086Z,87.50
2017-07-26T23:11:43.552Z,87.50
2017-07-26T23:14:11.027Z,87.60
2017-07-26T23:16:39.022Z,87.50
2017-07-26T23:19:10.841Z,87.40
2017-07-26T23:21:38.300Z,87.60
2017-07-26T23:24:05.771Z,87.60
2017-07-26T23:26:33.207Z,87.30
2017-07-26T23:29:03.612Z,87.40
2017-07-26T23:31:31.092Z,87.60
2017-07-26T23:34:00.052Z,87.60
2017-07-26T23:36:28.359Z,87.50
2017-07-26T23:38:55.892Z,88.00
2017-07-26T23:41:24.337Z,88.50
2017-07-26T23:43:51.793Z,87.60
2017-07-26T23:46:19.246Z,87.50
2017-07-26T23:48:47.054Z,87.70
2017-07-26T23:51:14.524Z,87.80
2017-07-26T23:53:42.313Z,87.60
2017-07-26T23:56:10.188Z,87.80
2017-07-26T23:58:37.645Z,87.80
